createdAt,value
2018-11-22T12:18:19.105Z,32.33
2018-11-22T12:20:49.614Z,33.80
2018-11-22T12:23:20.016Z,34.60
2018-11-22T12:25:50.103Z,35.60
2018-11-22T12:28:20.830Z,35.13
2018-11-22T12:30:52.746Z,36.13
2018-11-22T12:33:41.163Z,37.50
2018-11-22T12:36:16.557Z,38.27
2018-11-22T12:38:47.189Z,41.80
2018-11-22T12:41:18.065Z,40.20
2018-11-22T12:43:48.279Z,38.03
2018-11-22T12:46:18.699Z,40.70
2018-11-22T12:48:49.818Z,43.33
2018-11-22T12:51:20.653Z,44.57
2018-11-22T12:53:50.975Z,36.07
2018-11-22T12:56:21.051Z,37.17
2018-11-22T12:58:51.075Z,40.73
2018-11-22T13:01:21.370Z,40.33
2018-11-22T13:03:51.701Z,36.43
2018-11-22T13:06:22.054Z,36.37
2018-11-22T13:08:52.414Z,36.90
2018-11-22T13:11:23.489Z,41.13
2018-11-22T13:13:54.094Z,38.50
2018-11-22T13:16:24.523Z,34.47
2018-11-22T13:18:59.422Z,34.60
2018-11-22T13:21:26.487Z,37.03
2018-11-22T13:23:56.887Z,32.77
2018-11-22T13:26:27.221Z,32.40
2018-11-22T13:28:57.898Z,32.00
2018-11-22T13:31:28.402Z,32.00
2018-11-22T13:33:59.143Z,33.27
2018-11-22T13:36:30.393Z,29.93
2018-11-22T13:39:01.301Z,31.80
2018-11-22T13:41:32.771Z,33.83
2018-11-22T13:44:03.844Z,30.20
2018-11-22T13:46:34.462Z,32.50
2018-11-22T13:49:05.269Z,34.07
2018-11-22T13:51:36.717Z,27.97
2018-11-22T13:54:07.197Z,33.07
2018-11-22T13:56:38.106Z,31.37
2018-11-22T13:59:08.552Z,32.37
2018-11-22T14:01:39.888Z,29.83
2018-11-22T14:04:10.275Z,32.67
2018-11-22T14:06:40.755Z,33.60
2018-11-22T14:09:11.679Z,29.50
2018-11-22T14:11:42.064Z,28.83
2018-11-22T14:14:12.755Z,29.07
2018-11-22T14:16:44.039Z,29.00
2018-11-22T14:19:14.247Z,31.67
2018-11-22T14:21:45.935Z,30.73
2018-11-22T14:24:16.775Z,28.17
2018-11-22T14:26:47.110Z,29.23
2018-11-22T14:29:17.772Z,26.00
2018-11-22T14:31:48.239Z,29.20
2018-11-22T14:34:18.629Z,27.97
2018-11-22T14:36:49.188Z,28.73
2018-11-22T14:39:19.512Z,29.57
2018-11-22T14:41:50.779Z,28.93
2018-11-22T14:44:21.636Z,27.80
2018-11-22T14:46:52.148Z,30.07
2018-11-22T14:49:22.820Z,31.30
2018-11-22T14:51:54.722Z,32.70
2018-11-22T14:54:25.288Z,32.83
2018-11-22T14:56:55.663Z,34.43
2018-11-22T14:59:27.309Z,31.73
2018-11-22T15:01:57.954Z,35.20
2018-11-22T15:04:28.647Z,33.47
2018-11-22T15:06:59.172Z,36.03
2018-11-22T15:09:29.487Z,35.77
2018-11-22T15:11:59.988Z,36.40
2018-11-22T15:14:30.370Z,36.67
2018-11-22T15:17:00.766Z,34.00
2018-11-22T15:19:31.161Z,36.97
2018-11-22T15:22:01.724Z,36.50
2018-11-22T15:24:32.196Z,36.73
2018-11-22T15:27:02.862Z,38.90
2018-11-22T15:29:33.237Z,39.17
2018-11-22T15:32:03.564Z,41.83
2018-11-22T15:34:34.013Z,41.37
2018-11-22T15:37:05.500Z,37.60
2018-11-22T15:39:36.612Z,41.60
2018-11-22T15:42:07.156Z,39.27
2018-11-22T15:44:37.474Z,39.47
2018-11-22T15:47:09.375Z,38.30
2018-11-22T15:49:39.799Z,36.97
2018-11-22T15:52:10.949Z,40.50
2018-11-22T15:54:41.453Z,40.47
2018-11-22T15:57:11.642Z,38.63
2018-11-22T15:59:42.029Z,38.97
2018-11-22T16:02:12.458Z,40.77
2018-11-22T16:04:42.708Z,43.73
2018-11-22T16:07:13.030Z,39.70
2018-11-22T16:09:44.326Z,42.13
2018-11-22T16:12:15.605Z,37.90
2018-11-22T16:14:46.062Z,39.37
2018-11-22T16:17:16.356Z,42.67
2018-11-22T16:19:46.641Z,42.07
2018-11-22T16:22:16.903Z,35.60
2018-11-22T16:24:47.096Z,38.50
2018-11-22T16:27:17.883Z,40.03
2018-11-22T16:29:49.086Z,37.40
2018-11-22T16:32:19.627Z,37.23
2018-11-22T16:34:49.926Z,41.10
2018-11-22T16:37:20.164Z,38.17
2018-11-22T16:39:54.232Z,35.63
2018-11-22T16:42:21.709Z,42.07
2018-11-22T16:44:52.485Z,37.77
2018-11-22T16:47:23.697Z,42.03
2018-11-22T16:49:54.378Z,41.93
2018-11-22T16:52:25.403Z,48.70
2018-11-22T16:54:55.629Z,44.00
2018-11-22T16:57:25.765Z,49.00
2018-11-22T16:59:56.382Z,51.13
2018-11-22T17:02:26.787Z,51.27
2018-11-22T17:04:57.036Z,42.83
2018-11-22T17:07:27.477Z,40.20
2018-11-22T17:09:58.021Z,37.07
2018-11-22T17:12:28.368Z,38.07
2018-11-22T17:14:59.309Z,40.90
2018-11-22T17:17:29.517Z,35.77
2018-11-22T17:20:00.179Z,39.63
2018-11-22T17:22:31.066Z,39.60
2018-11-22T17:25:01.191Z,41.33
2018-11-22T17:27:31.742Z,46.00
2018-11-22T17:30:03.036Z,42.10
2018-11-22T17:32:33.446Z,40.90
2018-11-22T17:35:03.624Z,41.57
2018-11-22T17:37:33.744Z,40.70
2018-11-22T17:40:04.392Z,40.27
2018-11-22T17:42:34.634Z,43.10
2018-11-22T17:45:06.266Z,39.23
2018-11-22T17:47:36.574Z,35.97
2018-11-22T17:50:08.740Z,37.77
2018-11-22T17:52:39.014Z,41.00
2018-11-22T17:55:11.510Z,40.87
2018-11-22T17:57:41.834Z,40.10
2018-11-22T18:00:16.165Z,40.57
2018-11-22T18:02:47.867Z,41.03
2018-11-22T18:05:18.571Z,43.13
2018-11-22T18:07:50.185Z,40.17
2018-11-22T18:10:23.409Z,36.97
2018-11-22T18:12:54.350Z,41.33
2018-11-22T18:15:25.510Z,41.13
2018-11-22T18:17:57.465Z,41.67
2018-11-22T18:20:29.310Z,39.93
2018-11-22T18:23:00.894Z,43.43
2018-11-22T18:25:32.463Z,43.43
2018-11-22T18:28:02.894Z,40.00
2018-11-22T18:30:34.079Z,38.83
2018-11-22T18:33:05.899Z,41.77
2018-11-22T18:35:36.195Z,43.17
2018-11-22T18:38:06.926Z,44.23
2018-11-22T18:40:39.789Z,42.43
2018-11-22T18:43:10.077Z,37.57
2018-11-22T18:45:42.279Z,42.70
2018-11-22T18:48:14.159Z,44.40
2018-11-22T18:50:46.990Z,51.60
2018-11-22T18:53:16.661Z,42.80
2018-11-22T18:55:47.153Z,41.77
2018-11-22T18:58:17.757Z,41.90
2018-11-22T19:00:48.203Z,41.23
2018-11-22T19:03:20.807Z,38.93
2018-11-22T19:05:51.486Z,40.90
2018-11-22T19:08:23.669Z,38.37
2018-11-22T19:10:52.582Z,38.47
2018-11-22T19:13:23.159Z,35.60
2018-11-22T19:15:53.388Z,37.07
2018-11-22T19:18:23.765Z,36.23
2018-11-22T19:20:55.065Z,36.53
2018-11-22T19:23:25.340Z,39.17
2018-11-22T19:25:56.570Z,38.30
2018-11-22T19:28:26.895Z,35.43
2018-11-22T19:30:57.509Z,32.57
2018-11-22T19:33:28.650Z,34.70
2018-11-22T19:35:59.034Z,33.07
2018-11-22T19:38:29.356Z,35.13
2018-11-22T19:40:59.873Z,36.90
2018-11-22T19:43:31.022Z,31.90
2018-11-22T19:46:01.283Z,38.00
2018-11-22T19:48:31.312Z,36.10
2018-11-22T19:51:05.788Z,38.47
2018-11-22T19:53:32.218Z,39.63
2018-11-22T19:56:03.750Z,43.03
2018-11-22T19:58:34.019Z,42.80
2018-11-22T20:01:07.667Z,41.67
2018-11-22T20:03:35.211Z,46.27
2018-11-22T20:06:06.020Z,39.87
2018-11-22T20:08:36.390Z,39.47
2018-11-22T20:11:06.994Z,43.47
2018-11-22T20:13:37.851Z,47.70
2018-11-22T20:16:08.050Z,39.80
2018-11-22T20:18:38.754Z,39.27
2018-11-22T20:21:10.556Z,41.00
2018-11-22T20:23:41.521Z,39.33
2018-11-22T20:26:12.159Z,43.40
2018-11-22T20:28:42.804Z,39.37
2018-11-22T20:31:13.087Z,40.07
2018-11-22T20:33:43.618Z,41.23
2018-11-22T20:36:14.125Z,40.97
2018-11-22T20:38:44.831Z,36.90
2018-11-22T20:41:15.050Z,38.57
2018-11-22T20:43:45.708Z,38.87
2018-11-22T20:46:16.454Z,40.03
2018-11-22T20:48:47.038Z,40.07
2018-11-22T20:51:17.185Z,42.00
2018-11-22T20:53:49.032Z,41.60
2018-11-22T20:56:19.297Z,39.50
2018-11-22T20:58:50.363Z,43.80
2018-11-22T21:01:20.973Z,42.00
2018-11-22T21:03:51.604Z,42.47
2018-11-22T21:06:22.074Z,44.17
2018-11-22T21:08:52.433Z,42.97
2018-11-22T21:11:23.136Z,47.30
2018-11-22T21:13:53.188Z,41.67
2018-11-22T21:16:23.473Z,40.20
2018-11-22T21:18:53.821Z,36.37
2018-11-22T21:21:23.993Z,39.30
2018-11-22T21:23:54.194Z,37.50
2018-11-22T21:26:24.659Z,38.57
2018-11-22T21:28:55.658Z,40.53
2018-11-22T21:31:26.019Z,45.80
2018-11-22T21:33:56.320Z,46.07
2018-11-22T21:36:26.747Z,46.93
2018-11-22T21:38:57.062Z,44.40
2018-11-22T21:41:27.833Z,47.77
2018-11-22T21:43:58.317Z,45.70
2018-11-22T21:46:33.466Z,48.37
2018-11-22T21:49:03.497Z,46.70
2018-11-22T21:51:39.383Z,48.23
2018-11-22T21:54:04.470Z,50.23
2018-11-22T21:56:34.688Z,57.07
2018-11-22T21:59:05.630Z,51.67
2018-11-22T22:01:35.669Z,51.73
2018-11-22T22:04:06.134Z,53.83
2018-11-22T22:06:36.543Z,50.47
2018-11-22T22:09:08.316Z,51.13
2018-11-22T22:11:38.632Z,51.67
2018-11-22T22:14:09.845Z,50.57
2018-11-22T22:16:41.260Z,50.37
2018-11-22T22:19:11.574Z,51.07
2018-11-22T22:21:43.628Z,45.27
2018-11-22T22:24:13.690Z,47.23
2018-11-22T22:26:43.773Z,46.97
2018-11-22T22:29:14.917Z,50.37
2018-11-22T22:31:45.404Z,49.47
2018-11-22T22:34:16.047Z,49.90
2018-11-22T22:36:46.620Z,45.87
2018-11-22T22:39:16.895Z,55.80
2018-11-22T22:41:47.111Z,55.73
2018-11-22T22:44:17.508Z,56.10
2018-11-22T22:46:48.024Z,51.00
2018-11-22T22:49:18.316Z,55.87
2018-11-22T22:51:49.009Z,51.57
2018-11-22T22:54:19.574Z,54.97
2018-11-22T22:56:50.795Z,59.80
2018-11-22T22:59:21.305Z,58.90
2018-11-22T23:01:51.653Z,59.07
2018-11-22T23:04:21.843Z,51.73
2018-11-22T23:06:52.817Z,54.33
2018-11-22T23:09:24.133Z,54.93
2018-11-22T23:11:54.854Z,49.77
2018-11-22T23:14:26.047Z,47.90
2018-11-22T23:16:56.221Z,53.93
2018-11-22T23:19:26.637Z,49.20
2018-11-22T23:21:57.931Z,48.43
2018-11-22T23:24:29.690Z,49.83
2018-11-22T23:26:59.871Z,46.93
2018-11-22T23:29:30.145Z,45.73
2018-11-22T23:32:01.114Z,46.10
2018-11-22T23:34:31.687Z,45.03
2018-11-22T23:37:01.984Z,47.93
2018-11-22T23:39:32.341Z,48.63
2018-11-22T23:42:02.803Z,49.37
2018-11-22T23:44:33.141Z,46.17
2018-11-22T23:47:03.416Z,50.10
2018-11-22T23:49:33.556Z,53.63
2018-11-22T23:52:04.468Z,53.83
2018-11-22T23:54:36.011Z,56.33
2018-11-22T23:57:06.761Z,50.80
2018-11-22T23:59:37.752Z,54.90
